sensor_id;sensor_type;location;lat;lon;timestamp;pressure;altitude;pressure_sealevel;temperature;humidity
4836;BME280;66719;51.226;6.902;2023-07-28T00:01:52;99778.94;;;17.00;100.00
4836;BME280;66719;51.226;6.902;2023-07-28T00:04:19;99783.28;;;17.01;100.00
4836;BME280;66719;51.226;6.902;2023-07-28T00:06:46;99787.72;;;17.01;100.00
4836;BME280;66719;51.226;6.902;2023-07-28T00:09:12;99787.72;;;17.01;100.00
4836;BME280;66719;51.226;6.902;2023-07-28T00:11:39;99783.28;;;17.01;100.00
4836;BME280;66719;51.226;6.902;2023-07-28T00:14:05;99782.53;;;16.99;100.00
4836;BME280;66719;51.226;6.902;2023-07-28T00:16:32;99780.00;;;16.98;100.00
4836;BME280;66719;51.226;6.902;2023-07-28T00:18:59;99785.19;;;16.99;100.00
4836;BME280;66719;51.226;6.902;2023-07-28T00:21:26;99787.72;;;17.01;100.00
4836;BME280;66719;51.226;6.902;2023-07-28T00:23:53;99772.72;;;17.01;100.00
4836;BME280;66719;51.226;6.902;2023-07-28T00:26:20;99788.69;;;17.00;100.00
4836;BME280;66719;51.226;6.902;2023-07-28T00:28:46;99776.31;;;17.00;100.00
4836;BME280;66719;51.226;6.902;2023-07-28T00:31:13;99776.22;;;17.02;100.00
4836;BME280;66719;51.226;6.902;2023-07-28T00:33:39;99771.00;;;17.00;100.00
4836;BME280;66719;51.226;6.902;2023-07-28T00:36:06;99782.44;;;17.01;100.00
4836;BME280;66719;51.226;6.902;2023-07-28T00:38:33;99773.66;;;17.00;100.00
4836;BME280;66719;51.226;6.902;2023-07-28T00:40:59;99775.47;;;17.00;100.00
4836;BME280;66719;51.226;6.902;2023-07-28T00:43:26;99775.34;;;17.01;100.00
4836;BME280;66719;51.226;6.902;2023-07-28T00:45:53;99770.16;;;17.00;100.00
4836;BME280;66719;51.226;6.902;2023-07-28T00:48:20;99770.16;;;17.00;100.00
4836;BME280;66719;51.226;6.902;2023-07-28T00:50:48;99769.22;;;17.01;100.00
4836;BME280;66719;51.226;6.902;2023-07-28T00:53:15;99774.41;;;17.02;100.00
4836;BME280;66719;51.226;6.902;2023-07-28T00:55:42;99766.56;;;17.01;100.00
4836;BME280;66719;51.226;6.902;2023-07-28T00:58:09;99764.03;;;16.99;100.00
4836;BME280;66719;51.226;6.902;2023-07-28T01:00:35;99773.75;;;16.99;100.00
4836;BME280;66719;51.226;6.902;2023-07-28T01:03:02;99773.75;;;16.99;100.00
4836;BME280;66719;51.226;6.902;2023-07-28T01:05:47;99772.72;;;17.01;100.00
4836;BME280;66719;51.226;6.902;2023-07-28T01:10:53;99773.56;;;17.02;100.00
4836;BME280;66719;51.226;6.902;2023-07-28T01:13:20;99772.72;;;17.01;100.00
4836;BME280;66719;51.226;6.902;2023-07-28T01:15:47;99771.00;;;17.00;100.00
4836;BME280;66719;51.226;6.902;2023-07-28T01:18:14;99771.00;;;17.00;100.00
4836;BME280;66719;51.226;6.902;2023-07-28T01:20:42;99771.00;;;17.00;100.00
4836;BME280;66719;51.226;6.902;2023-07-28T01:23:14;99764.69;;;17.03;100.00
4836;BME280;66719;51.226;6.902;2023-07-28T01:26:10;99762.03;;;17.03;100.00
4836;BME280;66719;51.226;6.902;2023-07-28T01:28:39;99772.72;;;17.01;100.00
4836;BME280;66719;51.226;6.902;2023-07-28T01:31:07;99767.41;;;17.01;100.00
4836;BME280;66719;51.226;6.902;2023-07-28T01:33:34;99761.28;;;17.01;100.00
4836;BME280;66719;51.226;6.902;2023-07-28T01:36:00;99757.69;;;17.02;100.00
4836;BME280;66719;51.226;6.902;2023-07-28T01:38:28;99757.69;;;17.02;100.00
4836;BME280;66719;51.226;6.902;2023-07-28T01:40:54;99755.91;;;17.02;100.00
4836;BME280;66719;51.226;6.902;2023-07-28T01:43:21;99760.44;;;17.00;100.00
4836;BME280;66719;51.226;6.902;2023-07-28T01:45:48;99761.28;;;17.01;100.00
4836;BME280;66719;51.226;6.902;2023-07-28T01:48:14;99762.97;;;17.02;100.00
4836;BME280;66719;51.226;6.902;2023-07-28T01:50:41;99757.69;;;17.02;100.00
4836;BME280;66719;51.226;6.902;2023-07-28T01:53:07;99762.03;;;17.03;100.00
4836;BME280;66719;51.226;6.902;2023-07-28T01:55:34;99767.31;;;17.03;100.00
4836;BME280;66719;51.226;6.902;2023-07-28T01:58:01;99764.63;;;17.04;100.00
4836;BME280;66719;51.226;6.902;2023-07-28T02:00:29;99762.91;;;17.03;100.00
4836;BME280;66719;51.226;6.902;2023-07-28T02:02:56;99766.47;;;17.02;100.00
4836;BME280;66719;51.226;6.902;2023-07-28T02:05:24;99754.19;;;17.01;100.00
4836;BME280;66719;51.226;6.902;2023-07-28T02:07:51;99769.13;;;17.02;100.00
4836;BME280;66719;51.226;6.902;2023-07-28T02:10:18;99758.53;;;17.02;100.00
4836;BME280;66719;51.226;6.902;2023-07-28T02:12:44;99761.97;;;17.04;100.00
4836;BME280;66719;51.226;6.902;2023-07-28T02:15:11;99754.09;;;17.03;100.00
4836;BME280;66719;51.226;6.902;2023-07-28T02:17:38;99765.56;;;17.03;100.00
4836;BME280;66719;51.226;6.902;2023-07-28T02:20:05;99762.13;;;17.01;100.00
4836;BME280;66719;51.226;6.902;2023-07-28T02:22:32;99762.97;;;17.02;100.00
4836;BME280;66719;51.226;6.902;2023-07-28T02:24:58;99760.28;;;17.03;100.00
4836;BME280;66719;51.226;6.902;2023-07-28T02:27:28;99760.34;;;17.02;100.00
4836;BME280;66719;51.226;6.902;2023-07-28T02:29:55;99764.69;;;17.03;100.00
4836;BME280;66719;51.226;6.902;2023-07-28T02:32:21;99767.25;;;17.04;100.00
4836;BME280;66719;51.226;6.902;2023-07-28T02:34:48;99761.97;;;17.04;100.00
4836;BME280;66719;51.226;6.902;2023-07-28T02:37:15;99768.22;;;17.03;100.00
4836;BME280;66719;51.226;6.902;2023-07-28T02:39:42;99770.84;;;17.03;100.00
4836;BME280;66719;51.226;6.902;2023-07-28T02:42:09;99771.59;;;17.05;100.00
4836;BME280;66719;51.226;6.902;2023-07-28T02:44:35;99774.25;;;17.05;100.00
4836;BME280;66719;51.226;6.902;2023-07-28T02:47:02;99776.88;;;17.05;100.00
4836;BME280;66719;51.226;6.902;2023-07-28T02:49:28;99776.88;;;17.05;100.00
4836;BME280;66719;51.226;6.902;2023-07-28T02:51:55;99779.53;;;17.05;100.00
4836;BME280;66719;51.226;6.902;2023-07-28T02:54:24;99778.78;;;17.03;100.00
4836;BME280;66719;51.226;6.902;2023-07-28T02:56:51;99773.41;;;17.05;100.00
4836;BME280;66719;51.226;6.902;2023-07-28T02:59:18;99778.69;;;17.05;100.00
4836;BME280;66719;51.226;6.902;2023-07-28T03:01:45;99785.69;;;17.06;100.00
4836;BME280;66719;51.226;6.902;2023-07-28T03:04:11;99785.69;;;17.06;100.00
4836;BME280;66719;51.226;6.902;2023-07-28T03:06:38;99779.53;;;17.05;100.00
4836;BME280;66719;51.226;6.902;2023-07-28T03:09:04;99785.69;;;17.06;100.00
4836;BME280;66719;51.226;6.902;2023-07-28T03:11:31;99790.97;;;17.06;100.00
4836;BME280;66719;51.226;6.902;2023-07-28T03:13:57;99790.13;;;17.05;100.00
4836;BME280;66719;51.226;6.902;2023-07-28T03:16:24;99783.03;;;17.06;100.00
4836;BME280;66719;51.226;6.902;2023-07-28T03:18:50;99786.53;;;17.06;100.00
4836;BME280;66719;51.226;6.902;2023-07-28T03:21:17;99788.31;;;17.06;100.00
4836;BME280;66719;51.226;6.902;2023-07-28T03:23:43;99790.97;;;17.06;100.00
4836;BME280;66719;51.226;6.902;2023-07-28T03:26:10;99792.66;;;17.07;100.00
4836;BME280;66719;51.226;6.902;2023-07-28T03:28:36;99794.47;;;17.06;100.00
4836;BME280;66719;51.226;6.902;2023-07-28T03:31:03;99799.75;;;17.06;100.00
4836;BME280;66719;51.226;6.902;2023-07-28T03:33:29;99790.97;;;17.06;100.00
4836;BME280;66719;51.226;6.902;2023-07-28T03:35:56;99791.81;;;17.06;100.00
4836;BME280;66719;51.226;6.902;2023-07-28T03:38:22;99786.53;;;17.06;100.00
4836;BME280;66719;51.226;6.902;2023-07-28T03:40:50;99809.38;;;17.07;100.00
4836;BME280;66719;51.226;6.902;2023-07-28T03:43:17;99793.50;;;17.07;100.00
4836;BME280;66719;51.226;6.902;2023-07-28T03:45:44;99797.84;;;17.08;100.00
4836;BME280;66719;51.226;6.902;2023-07-28T03:48:10;99788.13;;;17.09;100.00
4836;BME280;66719;51.226;6.902;2023-07-28T03:50:37;99800.50;;;17.08;100.00
4836;BME280;66719;51.226;6.902;2023-07-28T03:53:04;99804.84;;;17.09;100.00
4836;BME280;66719;51.226;6.902;2023-07-28T03:55:30;99803.91;;;17.10;100.00
4836;BME280;66719;51.226;6.902;2023-07-28T03:57:57;99814.47;;;17.10;100.00
4836;BME280;66719;51.226;6.902;2023-07-28T04:00:23;99817.22;;;17.09;100.00
4836;BME280;66719;51.226;6.902;2023-07-28T04:02:50;99806.63;;;17.09;100.00
4836;BME280;66719;51.226;6.902;2023-07-28T04:05:16;99804.84;;;17.09;100.00
4836;BME280;66719;51.226;6.902;2023-07-28T04:07:43;99810.03;;;17.11;100.00
4836;BME280;66719;51.226;6.902;2023-07-28T04:10:09;99802.19;;;17.09;100.00
4836;BME280;66719;51.226;6.902;2023-07-28T04:12:36;99803.91;;;17.10;100.00
4836;BME280;66719;51.226;6.902;2023-07-28T04:15:03;99795.13;;;17.10;100.00
4836;BME280;66719;51.226;6.902;2023-07-28T04:17:30;99802.09;;;17.11;100.00
4836;BME280;66719;51.226;6.902;2023-07-28T04:19:58;99801.19;;;17.12;100.00
4836;BME280;66719;51.226;6.902;2023-07-28T04:22:24;99809.97;;;17.12;100.00
4836;BME280;66719;51.226;6.902;2023-07-28T04:24:51;99802.88;;;17.13;100.00
4836;BME280;66719;51.226;6.902;2023-07-28T04:27:17;99809.03;;;17.13;100.00
4836;BME280;66719;51.226;6.902;2023-07-28T04:29:44;99806.38;;;17.13;100.00
4836;BME280;66719;51.226;6.902;2023-07-28T04:32:10;99809.88;;;17.14;100.00
4836;BME280;66719;51.226;6.902;2023-07-28T04:34:37;99809.88;;;17.14;100.00
4836;BME280;66719;51.226;6.902;2023-07-28T04:37:04;99814.31;;;17.13;100.00
4836;BME280;66719;51.226;6.902;2023-07-28T04:39:30;99814.31;;;17.13;100.00
4836;BME280;66719;51.226;6.902;2023-07-28T04:41:57;99810.88;;;17.11;100.00
4836;BME280;66719;51.226;6.902;2023-07-28T04:44:23;99809.88;;;17.14;100.00
4836;BME280;66719;51.226;6.902;2023-07-28T04:46:50;99826.59;;;17.14;100.00
4836;BME280;66719;51.226;6.902;2023-07-28T04:49:17;99814.13;;;17.16;100.00
4836;BME280;66719;51.226;6.902;2023-07-28T04:51:43;99817.50;;;17.18;100.00
4836;BME280;66719;51.226;6.902;2023-07-28T04:54:10;99816.56;;;17.19;100.00
4836;BME280;66719;51.226;6.902;2023-07-28T04:56:36;99823.59;;;17.20;100.00
4836;BME280;66719;51.226;6.902;2023-07-28T04:59:03;99825.28;;;17.21;100.00
4836;BME280;66719;51.226;6.902;2023-07-28T05:01:30;99826.13;;;17.22;100.00
4836;BME280;66719;51.226;6.902;2023-07-28T05:03:57;99830.38;;;17.24;100.00
4836;BME280;66719;51.226;6.902;2023-07-28T05:06:23;99821.50;;;17.26;100.00
4836;BME280;66719;51.226;6.902;2023-07-28T05:08:50;99827.53;;;17.28;100.00
4836;BME280;66719;51.226;6.902;2023-07-28T05:11:16;99823.94;;;17.29;100.00
4836;BME280;66719;51.226;6.902;2023-07-28T05:13:43;99832.75;;;17.29;100.00
4836;BME280;66719;51.226;6.902;2023-07-28T05:16:10;99840.69;;;17.29;100.00
4836;BME280;66719;51.226;6.902;2023-07-28T05:18:37;99837.19;;;17.29;100.00
4836;BME280;66719;51.226;6.902;2023-07-28T05:21:03;99840.59;;;17.31;100.00
4836;BME280;66719;51.226;6.902;2023-07-28T05:23:30;99840.69;;;17.29;100.00
4836;BME280;66719;51.226;6.902;2023-07-28T05:25:56;99844.19;;;17.30;100.00
4836;BME280;66719;51.226;6.902;2023-07-28T05:28:23;99849.41;;;17.31;100.00
4836;BME280;66719;51.226;6.902;2023-07-28T05:30:49;99841.44;;;17.31;100.00
4836;BME280;66719;51.226;6.902;2023-07-28T05:33:16;99832.56;;;17.32;100.00
4836;BME280;66719;51.226;6.902;2023-07-28T05:35:42;99843.06;;;17.34;100.00
4836;BME280;66719;51.226;6.902;2023-07-28T05:38:09;99856.19;;;17.35;100.00
4836;BME280;66719;51.226;6.902;2023-07-28T05:40:35;99857.13;;;17.34;100.00
4836;BME280;66719;51.226;6.902;2023-07-28T05:43:02;99861.47;;;17.35;100.00
4836;BME280;66719;51.226;6.902;2023-07-28T05:45:29;99862.34;;;17.36;100.00
4836;BME280;66719;51.226;6.902;2023-07-28T05:47:55;99871.06;;;17.38;100.00
4836;BME280;66719;51.226;6.902;2023-07-28T05:50:22;99866.69;;;17.37;100.00
4836;BME280;66719;51.226;6.902;2023-07-28T05:52:48;99871.06;;;17.38;100.00
4836;BME280;66719;51.226;6.902;2023-07-28T05:55:15;99869.31;;;17.37;100.00
4836;BME280;66719;51.226;6.902;2023-07-28T05:57:42;99865.66;;;17.39;100.00
4836;BME280;66719;51.226;6.902;2023-07-28T06:00:09;99878.69;;;17.42;100.00
4836;BME280;66719;51.226;6.902;2023-07-28T06:02:36;99876.16;;;17.41;100.00
4836;BME280;66719;51.226;6.902;2023-07-28T06:05:03;99880.59;;;17.40;100.00
4836;BME280;66719;51.226;6.902;2023-07-28T06:07:29;99878.81;;;17.41;100.00
4836;BME280;66719;51.226;6.902;2023-07-28T06:09:56;99882.19;;;17.43;100.00
4836;BME280;66719;51.226;6.902;2023-07-28T06:12:22;99881.34;;;17.42;100.00
4836;BME280;66719;51.226;6.902;2023-07-28T06:14:49;99878.59;;;17.44;100.00
4836;BME280;66719;51.226;6.902;2023-07-28T06:17:15;99889.09;;;17.45;100.00
4836;BME280;66719;51.226;6.902;2023-07-28T06:19:42;99889.94;;;17.46;100.00
4836;BME280;66719;51.226;6.902;2023-07-28T06:22:09;99887.38;;;17.44;100.00
4836;BME280;66719;51.226;6.902;2023-07-28T06:24:35;99885.53;;;17.46;100.00
4836;BME280;66719;51.226;6.902;2023-07-28T06:27:02;99889.09;;;17.45;100.00
4836;BME280;66719;51.226;6.902;2023-07-28T06:29:35;99888.06;;;17.48;100.00
4836;BME280;66719;51.226;6.902;2023-07-28T06:32:01;99892.41;;;17.49;100.00
4836;BME280;66719;51.226;6.902;2023-07-28T06:34:28;99900.38;;;17.49;100.00
4836;BME280;66719;51.226;6.902;2023-07-28T06:36:54;99898.66;;;17.48;100.00
4836;BME280;66719;51.226;6.902;2023-07-28T06:39:21;99906.41;;;17.51;100.00
4836;BME280;66719;51.226;6.902;2023-07-28T06:41:47;99909.06;;;17.51;100.00
4836;BME280;66719;51.226;6.902;2023-07-28T06:44:14;99911.69;;;17.51;100.00
4836;BME280;66719;51.226;6.902;2023-07-28T06:46:40;99913.50;;;17.50;100.00
4836;BME280;66719;51.226;6.902;2023-07-28T06:49:10;99917.75;;;17.53;100.00
4836;BME280;66719;51.226;6.902;2023-07-28T06:51:37;99919.66;;;17.51;100.00
4836;BME280;66719;51.226;6.902;2023-07-28T06:54:03;99916.06;;;17.52;100.00
4836;BME280;66719;51.226;6.902;2023-07-28T06:56:30;99916.81;;;17.54;100.00
4836;BME280;66719;51.226;6.902;2023-07-28T06:58:57;99924.75;;;17.54;100.00
4836;BME280;66719;51.226;6.902;2023-07-28T07:01:40;99925.59;;;17.55;100.00
4836;BME280;66719;51.226;6.902;2023-07-28T07:04:07;99930.81;;;17.56;100.00
4836;BME280;66719;51.226;6.902;2023-07-28T07:06:33;99926.28;;;17.58;100.00
4836;BME280;66719;51.226;6.902;2023-07-28T07:09:00;99934.97;;;17.60;100.00
4836;BME280;66719;51.226;6.902;2023-07-28T07:11:26;99937.63;;;17.60;100.00
4836;BME280;66719;51.226;6.902;2023-07-28T07:13:53;99938.38;;;17.62;100.00
4836;BME280;66719;51.226;6.902;2023-07-28T07:16:19;99947.84;;;17.66;100.00
4836;BME280;66719;51.226;6.902;2023-07-28T07:18:53;99943.41;;;17.67;100.00
4836;BME280;66719;51.226;6.902;2023-07-28T07:21:19;99947.66;;;17.69;100.00
4836;BME280;66719;51.226;6.902;2023-07-28T07:23:46;99939.56;;;17.72;100.00
4836;BME280;66719;51.226;6.902;2023-07-28T07:26:12;99943.81;;;17.75;100.00
4836;BME280;66719;51.226;6.902;2023-07-28T07:28:39;99945.44;;;17.77;100.00
4836;BME280;66719;51.226;6.902;2023-07-28T07:31:15;99950.53;;;17.80;100.00
4836;BME280;66719;51.226;6.902;2023-07-28T07:33:41;99944.22;;;17.83;100.00
4836;BME280;66719;51.226;6.902;2023-07-28T07:36:15;99951.31;;;17.83;100.00
4836;BME280;66719;51.226;6.902;2023-07-28T07:38:42;99959.25;;;17.83;100.00
4836;BME280;66719;51.226;6.902;2023-07-28T07:41:13;99951.22;;;17.84;100.00
4836;BME280;66719;51.226;6.902;2023-07-28T07:43:42;99954.72;;;17.85;100.00
4836;BME280;66719;51.226;6.902;2023-07-28T07:46:08;99949.22;;;17.88;100.00
4836;BME280;66719;51.226;6.902;2023-07-28T07:48:35;99960.59;;;17.90;100.00
4836;BME280;66719;51.226;6.902;2023-07-28T07:51:02;99962.19;;;17.92;100.00
4836;BME280;66719;51.226;6.902;2023-07-28T07:53:28;99961.44;;;17.90;100.00
4836;BME280;66719;51.226;6.902;2023-07-28T07:55:55;99971.84;;;17.93;100.00
4836;BME280;66719;51.226;6.902;2023-07-28T07:58:21;99966.53;;;17.93;100.00
4836;BME280;66719;51.226;6.902;2023-07-28T08:00:48;99966.34;;;17.96;100.00
4836;BME280;66719;51.226;6.902;2023-07-28T08:03:15;99963.78;;;17.95;100.00
4836;BME280;66719;51.226;6.902;2023-07-28T08:05:42;99980.63;;;17.94;100.00
4836;BME280;66719;51.226;6.902;2023-07-28T08:08:08;99981.50;;;17.94;100.00
4836;BME280;66719;51.226;6.902;2023-07-28T08:10:36;99972.59;;;17.95;100.00
4836;BME280;66719;51.226;6.902;2023-07-28T08:13:03;99976.09;;;17.96;100.00
4836;BME280;66719;51.226;6.902;2023-07-28T08:15:30;99976.66;;;18.01;100.00
4836;BME280;66719;51.226;6.902;2023-07-28T08:17:57;99975.63;;;18.03;100.00
4836;BME280;66719;51.226;6.902;2023-07-28T08:20:23;99984.41;;;18.04;100.00
4836;BME280;66719;51.226;6.902;2023-07-28T08:22:50;99982.72;;;18.03;100.00
4836;BME280;66719;51.226;6.902;2023-07-28T08:25:16;99992.56;;;18.01;100.00
4836;BME280;66719;51.226;6.902;2023-07-28T08:27:43;99986.41;;;18.00;100.00
4836;BME280;66719;51.226;6.902;2023-07-28T08:30:10;99995.22;;;18.01;100.00
4836;BME280;66719;51.226;6.902;2023-07-28T08:32:37;99992.38;;;18.04;100.00
4836;BME280;66719;51.226;6.902;2023-07-28T08:35:04;99995.78;;;18.06;100.00
4836;BME280;66719;51.226;6.902;2023-07-28T08:37:30;99999.19;;;18.08;100.00
4836;BME280;66719;51.226;6.902;2023-07-28T08:39:57;100001.75;;;18.10;100.00
4836;BME280;66719;51.226;6.902;2023-07-28T08:42:23;100002.50;;;18.12;100.00
4836;BME280;66719;51.226;6.902;2023-07-28T08:44:50;100004.50;;;18.08;100.00
4836;BME280;66719;51.226;6.902;2023-07-28T08:47:18;100000.91;;;18.09;100.00
4836;BME280;66719;51.226;6.902;2023-07-28T08:49:45;100008.84;;;18.09;100.00
4836;BME280;66719;51.226;6.902;2023-07-28T08:52:16;100007.59;;;18.15;100.00
4836;BME280;66719;51.226;6.902;2023-07-28T08:54:43;100016.41;;;18.15;100.00
4836;BME280;66719;51.226;6.902;2023-07-28T08:57:10;100004.94;;;18.15;100.00
4836;BME280;66719;51.226;6.902;2023-07-28T08:59:36;100015.66;;;18.13;100.00
4836;BME280;66719;51.226;6.902;2023-07-28T09:02:09;100020.84;;;18.15;100.00
4836;BME280;66719;51.226;6.902;2023-07-28T09:04:36;100007.97;;;18.23;100.00
4836;BME280;66719;51.226;6.902;2023-07-28T09:07:04;100022.66;;;18.28;100.00
4836;BME280;66719;51.226;6.902;2023-07-28T09:09:32;100017.16;;;18.31;100.00
4836;BME280;66719;51.226;6.902;2023-07-28T09:12:00;100010.63;;;18.37;100.00
4836;BME280;66719;51.226;6.902;2023-07-28T09:14:30;100015.09;;;18.36;100.00
4836;BME280;66719;51.226;6.902;2023-07-28T09:17:10;100007.78;;;18.40;100.00
4836;BME280;66719;51.226;6.902;2023-07-28T09:19:54;100007.78;;;18.40;100.00
4836;BME280;66719;51.226;6.902;2023-07-28T09:22:22;100013.94;;;18.41;100.00
4836;BME280;66719;51.226;6.902;2023-07-28T09:24:50;100010.28;;;18.43;100.00
4836;BME280;66719;51.226;6.902;2023-07-28T09:27:26;100004.66;;;18.48;100.00
4836;BME280;66719;51.226;6.902;2023-07-28T09:29:55;100004.50;;;18.51;100.00
4836;BME280;66719;51.226;6.902;2023-07-28T09:32:32;100005.34;;;18.51;100.00
4836;BME280;66719;51.226;6.902;2023-07-28T09:35:07;100010.91;;;18.61;100.00
4836;BME280;66719;51.226;6.902;2023-07-28T09:37:37;100013.19;;;18.67;100.00
4836;BME280;66719;51.226;6.902;2023-07-28T09:40:10;100006.94;;;18.68;100.00
4836;BME280;66719;51.226;6.902;2023-07-28T09:42:43;100009.78;;;18.65;100.00
4836;BME280;66719;51.226;6.902;2023-07-28T09:45:12;100007.81;;;18.69;100.00
4836;BME280;66719;51.226;6.902;2023-07-28T09:48:01;100013.09;;;18.69;100.00
4836;BME280;66719;51.226;6.902;2023-07-28T09:50:32;100016.41;;;18.72;100.00
4836;BME280;66719;51.226;6.902;2023-07-28T09:53:02;100009.28;;;18.73;100.00
4836;BME280;66719;51.226;6.902;2023-07-28T09:55:29;100010.16;;;18.73;100.00
4836;BME280;66719;51.226;6.902;2023-07-28T09:57:58;100002.28;;;18.72;100.00
4836;BME280;66719;51.226;6.902;2023-07-28T10:00:28;100008.06;;;18.78;100.00
4836;BME280;66719;51.226;6.902;2023-07-28T10:02:56;100009.44;;;18.84;100.00
4836;BME280;66719;51.226;6.902;2023-07-28T10:05:24;100013.53;;;18.89;100.00
4836;BME280;66719;51.226;6.902;2023-07-28T10:07:51;100013.81;;;18.85;100.00
4836;BME280;66719;51.226;6.902;2023-07-28T10:10:18;100005.16;;;18.96;100.00
4836;BME280;66719;51.226;6.902;2023-07-28T10:12:52;100005.03;;;19.11;100.00
4836;BME280;66719;51.226;6.902;2023-07-28T10:15:20;100002.38;;;19.11;100.00
4836;BME280;66719;51.226;6.902;2023-07-28T10:17:51;100002.50;;;19.23;100.00
4836;BME280;66719;51.226;6.902;2023-07-28T10:20:38;99995.41;;;19.36;100.00
4836;BME280;66719;51.226;6.902;2023-07-28T10:23:12;99993.22;;;19.42;100.00
4836;BME280;66719;51.226;6.902;2023-07-28T10:25:40;99997.56;;;19.43;100.00
4836;BME280;66719;51.226;6.902;2023-07-28T10:28:37;99997.38;;;19.46;100.00
4836;BME280;66719;51.226;6.902;2023-07-28T10:31:11;99990.44;;;19.44;100.00
4836;BME280;66719;51.226;6.902;2023-07-28T10:33:40;99989.69;;;19.42;100.00
4836;BME280;66719;51.226;6.902;2023-07-28T10:39:12;99994.03;;;19.30;100.00
4836;BME280;66719;51.226;6.902;2023-07-28T10:42:09;99998.06;;;19.23;100.00
4836;BME280;66719;51.226;6.902;2023-07-28T10:44:36;100001.16;;;19.30;100.00
4836;BME280;66719;51.226;6.902;2023-07-28T10:47:08;100001.56;;;19.36;100.00
4836;BME280;66719;51.226;6.902;2023-07-28T10:49:35;99997.03;;;19.38;100.00
4836;BME280;66719;51.226;6.902;2023-07-28T10:52:02;100004.91;;;19.40;100.00
4836;BME280;66719;51.226;6.902;2023-07-28T10:54:31;100007.84;;;19.35;100.00
4836;BME280;66719;51.226;6.902;2023-07-28T10:57:01;100002.44;;;19.37;100.00
4836;BME280;66719;51.226;6.902;2023-07-28T10:59:29;100000.44;;;19.40;100.00
4836;BME280;66719;51.226;6.902;2023-07-28T11:01:56;100014.34;;;19.44;100.00
4836;BME280;66719;51.226;6.902;2023-07-28T11:04:23;100018.41;;;19.49;100.00
4836;BME280;66719;51.226;6.902;2023-07-28T11:06:50;100004.66;;;19.57;100.00
4836;BME280;66719;51.226;6.902;2023-07-28T11:09:19;100004.88;;;19.67;100.00
4836;BME280;66719;51.226;6.902;2023-07-28T11:11:49;100007.84;;;19.75;100.00
4836;BME280;66719;51.226;6.902;2023-07-28T11:14:17;99997.13;;;19.89;100.00
4836;BME280;66719;51.226;6.902;2023-07-28T11:16:45;100002.56;;;20.00;100.00
4836;BME280;66719;51.226;6.902;2023-07-28T11:19:14;99997.75;;;20.05;100.00
4836;BME280;66719;51.226;6.902;2023-07-28T11:21:42;99996.41;;;20.00;100.00
4836;BME280;66719;51.226;6.902;2023-07-28T11:24:10;99990.75;;;20.04;100.00
4836;BME280;66719;51.226;6.902;2023-07-28T11:26:38;99996.06;;;20.17;100.00
4836;BME280;66719;51.226;6.902;2023-07-28T11:29:05;99998.81;;;20.28;100.00
4836;BME280;66719;51.226;6.902;2023-07-28T11:31:33;100007.31;;;20.21;100.00
4836;BME280;66719;51.226;6.902;2023-07-28T11:34:00;100002.97;;;20.20;100.00
4836;BME280;66719;51.226;6.902;2023-07-28T11:36:30;100000.19;;;20.21;100.00
4836;BME280;66719;51.226;6.902;2023-07-28T11:38:59;99992.44;;;20.18;100.00
4836;BME280;66719;51.226;6.902;2023-07-28T11:41:26;99993.81;;;20.24;100.00
4836;BME280;66719;51.226;6.902;2023-07-28T11:43:53;99994.88;;;20.34;100.00
4836;BME280;66719;51.226;6.902;2023-07-28T11:49:26;99999.34;;;20.33;100.00
4836;BME280;66719;51.226;6.902;2023-07-28T11:51:54;99997.22;;;20.26;100.00
4836;BME280;66719;51.226;6.902;2023-07-28T11:54:23;99995.09;;;20.18;100.00
4836;BME280;66719;51.226;6.902;2023-07-28T11:56:53;99994.47;;;20.15;100.00
4836;BME280;66719;51.226;6.902;2023-07-28T11:59:21;100006.06;;;20.14;100.00
4836;BME280;66719;51.226;6.902;2023-07-28T12:02:06;100012.66;;;20.21;100.00
4836;BME280;66719;51.226;6.902;2023-07-28T12:04:39;100018.38;;;20.15;100.00
4836;BME280;66719;51.226;6.902;2023-07-28T12:12:55;100011.56;;;20.62;100.00
4836;BME280;66719;51.226;6.902;2023-07-28T12:18:13;100012.34;;;20.87;100.00
4836;BME280;66719;51.226;6.902;2023-07-28T12:20:48;100003.28;;;20.90;100.00
4836;BME280;66719;51.226;6.902;2023-07-28T12:23:18;100001.88;;;21.21;100.00
4836;BME280;66719;51.226;6.902;2023-07-28T12:25:49;100008.31;;;21.54;100.00
4836;BME280;66719;51.226;6.902;2023-07-28T12:28:17;100003.06;;;21.41;100.00
4836;BME280;66719;51.226;6.902;2023-07-28T12:30:46;99991.94;;;21.23;100.00
4836;BME280;66719;51.226;6.902;2023-07-28T12:33:16;99996.72;;;21.07;100.00
4836;BME280;66719;51.226;6.902;2023-07-28T12:35:45;100001.63;;;21.00;100.00
4836;BME280;66719;51.226;6.902;2023-07-28T12:38:16;100001.63;;;21.00;100.00
4836;BME280;66719;51.226;6.902;2023-07-28T12:40:46;99997.63;;;20.95;100.00
4836;BME280;66719;51.226;6.902;2023-07-28T12:43:15;100014.53;;;20.94;100.00
4836;BME280;66719;51.226;6.902;2023-07-28T12:45:45;100012.97;;;21.15;100.00
4836;BME280;66719;51.226;6.902;2023-07-28T12:48:14;100009.56;;;21.13;100.00
4836;BME280;66719;51.226;6.902;2023-07-28T12:50:44;100016.31;;;21.06;100.00
4836;BME280;66719;51.226;6.902;2023-07-28T12:53:10;100005.13;;;21.01;100.00
4836;BME280;66719;51.226;6.902;2023-07-28T12:55:43;100014.44;;;20.95;100.00
4836;BME280;66719;51.226;6.902;2023-07-28T12:58:13;100015.41;;;20.94;100.00
4836;BME280;66719;51.226;6.902;2023-07-28T13:00:43;100005.38;;;20.98;100.00
4836;BME280;66719;51.226;6.902;2023-07-28T13:03:12;100015.66;;;21.02;100.00
4836;BME280;66719;51.226;6.902;2023-07-28T13:05:56;100028.38;;;20.99;100.00
4836;BME280;66719;51.226;6.902;2023-07-28T13:08:23;100022.19;;;20.98;100.00
4836;BME280;66719;51.226;6.902;2023-07-28T13:10:53;100036.06;;;20.91;100.00
4836;BME280;66719;51.226;6.902;2023-07-28T13:13:22;100041.81;;;20.84;100.00
4836;BME280;66719;51.226;6.902;2023-07-28T13:15:48;100036.84;;;20.80;100.00
4836;BME280;66719;51.226;6.902;2023-07-28T13:18:15;100042.59;;;20.74;100.00
4836;BME280;66719;51.226;6.902;2023-07-28T13:20:42;100053.59;;;20.69;100.00